sensor_id;sensor_type;location;lat;lon;timestamp;P1;P2;P0
61760;PMS5003;47664;51.660;-0.100;2023-07-20T00:00:42;2;2;
61760;PMS5003;47664;51.660;-0.100;2023-07-20T00:03:10;0;0;
61760;PMS5003;47664;51.660;-0.100;2023-07-20T00:05:38;2;2;
61760;PMS5003;47664;51.660;-0.100;2023-07-20T00:08:05;1;1;
61760;PMS5003;47664;51.660;-0.100;2023-07-20T00:10:32;2;2;
61760;PMS5003;47664;51.660;-0.100;2023-07-20T00:12:59;3;2;
61760;PMS5003;47664;51.660;-0.100;2023-07-20T00:15:25;4;2;
61760;PMS5003;47664;51.660;-0.100;2023-07-20T00:17:52;3;3;
61760;PMS5003;47664;51.660;-0.100;2023-07-20T00:20:19;0;0;
61760;PMS5003;47664;51.660;-0.100;2023-07-20T00:22:48;3;2;
61760;PMS5003;47664;51.660;-0.100;2023-07-20T00:25:15;2;2;
61760;PMS5003;47664;51.660;-0.100;2023-07-20T00:27:42;1;1;
61760;PMS5003;47664;51.660;-0.100;2023-07-20T00:30:09;1;1;
61760;PMS5003;47664;51.660;-0.100;2023-07-20T00:32:36;1;1;
61760;PMS5003;47664;51.660;-0.100;2023-07-20T00:35:03;1;1;
61760;PMS5003;47664;51.660;-0.100;2023-07-20T00:37:31;2;2;
61760;PMS5003;47664;51.660;-0.100;2023-07-20T00:39:58;2;1;
61760;PMS5003;47664;51.660;-0.100;2023-07-20T00:42:25;3;3;
61760;PMS5003;47664;51.660;-0.100;2023-07-20T00:44:52;0;0;
61760;PMS5003;47664;51.660;-0.100;2023-07-20T00:47:19;1;1;
61760;PMS5003;47664;51.660;-0.100;2023-07-20T00:49:46;3;1;
61760;PMS5003;47664;51.660;-0.100;2023-07-20T00:52:14;1;1;
61760;PMS5003;47664;51.660;-0.100;2023-07-20T00:54:41;1;1;
61760;PMS5003;47664;51.660;-0.100;2023-07-20T00:57:09;2;2;
61760;PMS5003;47664;51.660;-0.100;2023-07-20T00:59:36;2;2;
61760;PMS5003;47664;51.660;-0.100;2023-07-20T01:02:03;2;1;
61760;PMS5003;47664;51.660;-0.100;2023-07-20T01:04:31;2;2;
61760;PMS5003;47664;51.660;-0.100;2023-07-20T01:06:58;1;1;
61760;PMS5003;47664;51.660;-0.100;2023-07-20T01:09:39;1;1;
61760;PMS5003;47664;51.660;-0.100;2023-07-20T01:12:12;3;1;
61760;PMS5003;47664;51.660;-0.100;2023-07-20T01:14:45;1;1;
61760;PMS5003;47664;51.660;-0.100;2023-07-20T01:17:13;2;2;
61760;PMS5003;47664;51.660;-0.100;2023-07-20T01:19:40;2;2;
61760;PMS5003;47664;51.660;-0.100;2023-07-20T01:22:09;2;2;
61760;PMS5003;47664;51.660;-0.100;2023-07-20T01:24:54;2;2;
61760;PMS5003;47664;51.660;-0.100;2023-07-20T01:27:49;2;2;
61760;PMS5003;47664;51.660;-0.100;2023-07-20T01:30:43;3;3;
61760;PMS5003;47664;51.660;-0.100;2023-07-20T01:33:19;4;2;
61760;PMS5003;47664;51.660;-0.100;2023-07-20T01:35:52;1;1;
61760;PMS5003;47664;51.660;-0.100;2023-07-20T01:38:21;2;2;
61760;PMS5003;47664;51.660;-0.100;2023-07-20T01:40:50;4;3;
61760;PMS5003;47664;51.660;-0.100;2023-07-20T01:43:18;4;4;
61760;PMS5003;47664;51.660;-0.100;2023-07-20T01:45:45;5;4;
61760;PMS5003;47664;51.660;-0.100;2023-07-20T01:48:12;3;3;
61760;PMS5003;47664;51.660;-0.100;2023-07-20T01:50:39;2;2;
61760;PMS5003;47664;51.660;-0.100;2023-07-20T01:53:07;3;3;
61760;PMS5003;47664;51.660;-0.100;2023-07-20T01:55:35;3;3;
61760;PMS5003;47664;51.660;-0.100;2023-07-20T01:58:02;3;3;
61760;PMS5003;47664;51.660;-0.100;2023-07-20T02:00:29;3;3;
61760;PMS5003;47664;51.660;-0.100;2023-07-20T02:03:03;2;2;
61760;PMS5003;47664;51.660;-0.100;2023-07-20T02:05:30;2;2;
61760;PMS5003;47664;51.660;-0.100;2023-07-20T02:07:57;3;3;
61760;PMS5003;47664;51.660;-0.100;2023-07-20T02:10:24;6;2;
61760;PMS5003;47664;51.660;-0.100;2023-07-20T02:12:51;4;2;
61760;PMS5003;47664;51.660;-0.100;2023-07-20T02:15:18;2;2;
61760;PMS5003;47664;51.660;-0.100;2023-07-20T02:17:45;5;3;
61760;PMS5003;47664;51.660;-0.100;2023-07-20T02:20:12;6;3;
61760;PMS5003;47664;51.660;-0.100;2023-07-20T02:22:44;3;3;
61760;PMS5003;47664;51.660;-0.100;2023-07-20T02:25:11;4;2;
61760;PMS5003;47664;51.660;-0.100;2023-07-20T02:27:38;3;3;
61760;PMS5003;47664;51.660;-0.100;2023-07-20T02:30:05;4;2;
61760;PMS5003;47664;51.660;-0.100;2023-07-20T02:32:33;2;2;
61760;PMS5003;47664;51.660;-0.100;2023-07-20T02:35:00;5;3;
61760;PMS5003;47664;51.660;-0.100;2023-07-20T02:37:27;3;2;
61760;PMS5003;47664;51.660;-0.100;2023-07-20T02:39:54;2;2;
61760;PMS5003;47664;51.660;-0.100;2023-07-20T02:42:21;3;3;
61760;PMS5003;47664;51.660;-0.100;2023-07-20T02:44:48;3;3;
61760;PMS5003;47664;51.660;-0.100;2023-07-20T02:47:15;5;4;
61760;PMS5003;47664;51.660;-0.100;2023-07-20T02:49:42;2;2;
61760;PMS5003;47664;51.660;-0.100;2023-07-20T02:52:10;3;2;
61760;PMS5003;47664;51.660;-0.100;2023-07-20T02:54:36;7;4;
61760;PMS5003;47664;51.660;-0.100;2023-07-20T02:57:03;2;2;
61760;PMS5003;47664;51.660;-0.100;2023-07-20T02:59:31;5;4;
61760;PMS5003;47664;51.660;-0.100;2023-07-20T03:01:58;2;2;
61760;PMS5003;47664;51.660;-0.100;2023-07-20T03:04:25;6;3;
61760;PMS5003;47664;51.660;-0.100;2023-07-20T03:06:53;2;2;
61760;PMS5003;47664;51.660;-0.100;2023-07-20T03:09:20;2;2;
61760;PMS5003;47664;51.660;-0.100;2023-07-20T03:11:48;4;4;
61760;PMS5003;47664;51.660;-0.100;2023-07-20T03:14:16;3;3;
61760;PMS5003;47664;51.660;-0.100;2023-07-20T03:16:43;4;2;
61760;PMS5003;47664;51.660;-0.100;2023-07-20T03:19:10;3;3;
61760;PMS5003;47664;51.660;-0.100;2023-07-20T03:21:37;3;3;
61760;PMS5003;47664;51.660;-0.100;2023-07-20T03:24:04;1;1;
61760;PMS5003;47664;51.660;-0.100;2023-07-20T03:26:31;4;3;
61760;PMS5003;47664;51.660;-0.100;2023-07-20T03:28:58;2;2;
61760;PMS5003;47664;51.660;-0.100;2023-07-20T03:31:25;4;4;
61760;PMS5003;47664;51.660;-0.100;2023-07-20T03:33:52;4;4;
61760;PMS5003;47664;51.660;-0.100;2023-07-20T03:36:19;2;2;
61760;PMS5003;47664;51.660;-0.100;2023-07-20T03:38:47;3;3;
61760;PMS5003;47664;51.660;-0.100;2023-07-20T03:41:14;4;4;
61760;PMS5003;47664;51.660;-0.100;2023-07-20T03:43:40;2;2;
61760;PMS5003;47664;51.660;-0.100;2023-07-20T03:46:07;4;2;
61760;PMS5003;47664;51.660;-0.100;2023-07-20T03:48:34;2;2;
61760;PMS5003;47664;51.660;-0.100;2023-07-20T03:51:01;5;4;
61760;PMS5003;47664;51.660;-0.100;2023-07-20T03:53:28;2;2;
61760;PMS5003;47664;51.660;-0.100;2023-07-20T03:55:56;3;3;
61760;PMS5003;47664;51.660;-0.100;2023-07-20T03:58:22;4;2;
61760;PMS5003;47664;51.660;-0.100;2023-07-20T04:00:50;3;3;
61760;PMS5003;47664;51.660;-0.100;2023-07-20T04:03:18;3;3;
61760;PMS5003;47664;51.660;-0.100;2023-07-20T04:05:45;1;1;
61760;PMS5003;47664;51.660;-0.100;2023-07-20T04:08:12;5;2;
61760;PMS5003;47664;51.660;-0.100;2023-07-20T04:10:42;2;2;
61760;PMS5003;47664;51.660;-0.100;2023-07-20T04:13:11;4;2;
61760;PMS5003;47664;51.660;-0.100;2023-07-20T04:15:38;2;2;
61760;PMS5003;47664;51.660;-0.100;2023-07-20T04:18:05;6;4;
61760;PMS5003;47664;51.660;-0.100;2023-07-20T04:20:32;4;2;
61760;PMS5003;47664;51.660;-0.100;2023-07-20T04:22:59;2;2;
61760;PMS5003;47664;51.660;-0.100;2023-07-20T04:25:26;5;3;
61760;PMS5003;47664;51.660;-0.100;2023-07-20T04:27:53;3;3;
61760;PMS5003;47664;51.660;-0.100;2023-07-20T04:30:20;5;3;
61760;PMS5003;47664;51.660;-0.100;2023-07-20T04:32:48;4;4;
61760;PMS5003;47664;51.660;-0.100;2023-07-20T04:35:17;2;2;
61760;PMS5003;47664;51.660;-0.100;2023-07-20T04:38:11;4;4;
61760;PMS5003;47664;51.660;-0.100;2023-07-20T04:40:38;6;3;
61760;PMS5003;47664;51.660;-0.100;2023-07-20T04:43:05;3;3;
61760;PMS5003;47664;51.660;-0.100;2023-07-20T04:45:32;5;2;
61760;PMS5003;47664;51.660;-0.100;2023-07-20T04:47:59;3;3;
61760;PMS5003;47664;51.660;-0.100;2023-07-20T04:50:26;6;3;
61760;PMS5003;47664;51.660;-0.100;2023-07-20T04:52:53;4;4;
61760;PMS5003;47664;51.660;-0.100;2023-07-20T04:55:20;3;3;
61760;PMS5003;47664;51.660;-0.100;2023-07-20T04:57:48;4;3;
61760;PMS5003;47664;51.660;-0.100;2023-07-20T05:00:15;4;4;
61760;PMS5003;47664;51.660;-0.100;2023-07-20T05:02:42;6;3;
61760;PMS5003;47664;51.660;-0.100;2023-07-20T05:05:09;5;3;
61760;PMS5003;47664;51.660;-0.100;2023-07-20T05:07:36;3;3;
61760;PMS5003;47664;51.660;-0.100;2023-07-20T05:10:04;3;3;
61760;PMS5003;47664;51.660;-0.100;2023-07-20T05:12:32;5;3;
61760;PMS5003;47664;51.660;-0.100;2023-07-20T05:14:59;3;3;
61760;PMS5003;47664;51.660;-0.100;2023-07-20T05:17:26;5;4;
61760;PMS5003;47664;51.660;-0.100;2023-07-20T05:19:53;5;5;
61760;PMS5003;47664;51.660;-0.100;2023-07-20T05:22:20;6;5;
61760;PMS5003;47664;51.660;-0.100;2023-07-20T05:24:47;3;3;
61760;PMS5003;47664;51.660;-0.100;2023-07-20T05:27:14;4;3;
61760;PMS5003;47664;51.660;-0.100;2023-07-20T05:29:43;3;3;
61760;PMS5003;47664;51.660;-0.100;2023-07-20T05:32:11;5;4;
61760;PMS5003;47664;51.660;-0.100;2023-07-20T05:34:37;5;5;
61760;PMS5003;47664;51.660;-0.100;2023-07-20T05:37:05;5;3;
61760;PMS5003;47664;51.660;-0.100;2023-07-20T05:39:32;3;3;
61760;PMS5003;47664;51.660;-0.100;2023-07-20T05:41:59;6;4;
61760;PMS5003;47664;51.660;-0.100;2023-07-20T05:44:26;6;4;
61760;PMS5003;47664;51.660;-0.100;2023-07-20T05:46:53;5;5;
61760;PMS5003;47664;51.660;-0.100;2023-07-20T05:49:20;5;4;
61760;PMS5003;47664;51.660;-0.100;2023-07-20T05:51:48;5;5;
61760;PMS5003;47664;51.660;-0.100;2023-07-20T05:54:14;5;5;
61760;PMS5003;47664;51.660;-0.100;2023-07-20T05:56:46;7;4;
61760;PMS5003;47664;51.660;-0.100;2023-07-20T05:59:13;7;6;
61760;PMS5003;47664;51.660;-0.100;2023-07-20T06:01:40;3;3;
61760;PMS5003;47664;51.660;-0.100;2023-07-20T06:04:07;5;5;
61760;PMS5003;47664;51.660;-0.100;2023-07-20T06:06:34;6;6;
61760;PMS5003;47664;51.660;-0.100;2023-07-20T06:09:01;6;3;
61760;PMS5003;47664;51.660;-0.100;2023-07-20T06:11:29;6;5;
61760;PMS5003;47664;51.660;-0.100;2023-07-20T06:13:56;5;5;
61760;PMS5003;47664;51.660;-0.100;2023-07-20T06:16:23;8;5;
61760;PMS5003;47664;51.660;-0.100;2023-07-20T06:18:50;5;3;
61760;PMS5003;47664;51.660;-0.100;2023-07-20T06:21:17;3;2;
61760;PMS5003;47664;51.660;-0.100;2023-07-20T06:23:45;5;5;
61760;PMS5003;47664;51.660;-0.100;2023-07-20T06:26:12;7;5;
61760;PMS5003;47664;51.660;-0.100;2023-07-20T06:28:39;5;5;
61760;PMS5003;47664;51.660;-0.100;2023-07-20T06:31:06;7;4;
61760;PMS5003;47664;51.660;-0.100;2023-07-20T06:33:32;3;3;
61760;PMS5003;47664;51.660;-0.100;2023-07-20T06:36:00;3;3;
61760;PMS5003;47664;51.660;-0.100;2023-07-20T06:38:27;4;4;
61760;PMS5003;47664;51.660;-0.100;2023-07-20T06:40:55;5;5;
61760;PMS5003;47664;51.660;-0.100;2023-07-20T06:43:22;5;5;
61760;PMS5003;47664;51.660;-0.100;2023-07-20T06:45:51;6;6;
61760;PMS5003;47664;51.660;-0.100;2023-07-20T06:48:18;11;7;
61760;PMS5003;47664;51.660;-0.100;2023-07-20T06:50:46;3;3;
61760;PMS5003;47664;51.660;-0.100;2023-07-20T06:53:12;4;4;
61760;PMS5003;47664;51.660;-0.100;2023-07-20T06:55:41;4;4;
61760;PMS5003;47664;51.660;-0.100;2023-07-20T06:58:08;3;3;
61760;PMS5003;47664;51.660;-0.100;2023-07-20T07:00:35;6;4;
61760;PMS5003;47664;51.660;-0.100;2023-07-20T07:03:02;4;4;
61760;PMS5003;47664;51.660;-0.100;2023-07-20T07:05:29;6;4;
61760;PMS5003;47664;51.660;-0.100;2023-07-20T07:07:56;5;5;
61760;PMS5003;47664;51.660;-0.100;2023-07-20T07:10:23;5;4;
61760;PMS5003;47664;51.660;-0.100;2023-07-20T07:12:50;4;4;
61760;PMS5003;47664;51.660;-0.100;2023-07-20T07:15:17;7;6;
61760;PMS5003;47664;51.660;-0.100;2023-07-20T07:17:44;7;5;
61760;PMS5003;47664;51.660;-0.100;2023-07-20T07:20:11;5;5;
61760;PMS5003;47664;51.660;-0.100;2023-07-20T07:22:39;8;7;
61760;PMS5003;47664;51.660;-0.100;2023-07-20T07:25:06;4;4;
61760;PMS5003;47664;51.660;-0.100;2023-07-20T07:27:33;7;5;
61760;PMS5003;47664;51.660;-0.100;2023-07-20T07:30:00;3;3;
61760;PMS5003;47664;51.660;-0.100;2023-07-20T07:32:28;6;5;
61760;PMS5003;47664;51.660;-0.100;2023-07-20T07:34:55;1;1;
61760;PMS5003;47664;51.660;-0.100;2023-07-20T07:37:22;5;5;
61760;PMS5003;47664;51.660;-0.100;2023-07-20T07:39:50;7;4;
61760;PMS5003;47664;51.660;-0.100;2023-07-20T07:42:17;5;3;
61760;PMS5003;47664;51.660;-0.100;2023-07-20T07:44:44;6;5;
61760;PMS5003;47664;51.660;-0.100;2023-07-20T07:47:11;6;3;
61760;PMS5003;47664;51.660;-0.100;2023-07-20T07:49:37;7;5;
61760;PMS5003;47664;51.660;-0.100;2023-07-20T07:52:05;9;4;
61760;PMS5003;47664;51.660;-0.100;2023-07-20T07:54:33;4;4;
61760;PMS5003;47664;51.660;-0.100;2023-07-20T07:57:00;4;3;
61760;PMS5003;47664;51.660;-0.100;2023-07-20T07:59:26;4;4;
61760;PMS5003;47664;51.660;-0.100;2023-07-20T08:01:53;4;4;
61760;PMS5003;47664;51.660;-0.100;2023-07-20T08:04:20;5;5;
61760;PMS5003;47664;51.660;-0.100;2023-07-20T08:06:52;5;3;
61760;PMS5003;47664;51.660;-0.100;2023-07-20T08:09:19;4;3;
61760;PMS5003;47664;51.660;-0.100;2023-07-20T08:11:47;4;4;
61760;PMS5003;47664;51.660;-0.100;2023-07-20T08:14:14;4;4;
61760;PMS5003;47664;51.660;-0.100;2023-07-20T08:16:41;5;4;
61760;PMS5003;47664;51.660;-0.100;2023-07-20T08:19:07;1;1;
61760;PMS5003;47664;51.660;-0.100;2023-07-20T08:21:34;2;1;
61760;PMS5003;47664;51.660;-0.100;2023-07-20T08:24:01;6;4;
61760;PMS5003;47664;51.660;-0.100;2023-07-20T08:26:28;4;4;
61760;PMS5003;47664;51.660;-0.100;2023-07-20T08:28:55;4;3;
61760;PMS5003;47664;51.660;-0.100;2023-07-20T08:31:22;3;3;
61760;PMS5003;47664;51.660;-0.100;2023-07-20T08:33:49;2;2;
61760;PMS5003;47664;51.660;-0.100;2023-07-20T08:36:16;18;13;
61760;PMS5003;47664;51.660;-0.100;2023-07-20T08:38:43;3;3;
61760;PMS5003;47664;51.660;-0.100;2023-07-20T08:41:10;3;3;
61760;PMS5003;47664;51.660;-0.100;2023-07-20T08:43:38;4;4;
61760;PMS5003;47664;51.660;-0.100;2023-07-20T08:46:09;1;1;
61760;PMS5003;47664;51.660;-0.100;2023-07-20T08:48:38;4;4;
61760;PMS5003;47664;51.660;-0.100;2023-07-20T08:51:07;3;3;
61760;PMS5003;47664;51.660;-0.100;2023-07-20T08:53:35;4;2;
61760;PMS5003;47664;51.660;-0.100;2023-07-20T08:56:02;4;4;
61760;PMS5003;47664;51.660;-0.100;2023-07-20T08:58:30;3;3;
61760;PMS5003;47664;51.660;-0.100;2023-07-20T09:00:58;1;1;
61760;PMS5003;47664;51.660;-0.100;2023-07-20T09:03:26;5;4;
61760;PMS5003;47664;51.660;-0.100;2023-07-20T09:05:53;2;2;
61760;PMS5003;47664;51.660;-0.100;2023-07-20T09:08:20;3;3;
61760;PMS5003;47664;51.660;-0.100;2023-07-20T09:10:48;3;2;
61760;PMS5003;47664;51.660;-0.100;2023-07-20T09:13:15;3;3;
61760;PMS5003;47664;51.660;-0.100;2023-07-20T09:15:45;4;4;
61760;PMS5003;47664;51.660;-0.100;2023-07-20T09:18:23;2;2;
61760;PMS5003;47664;51.660;-0.100;2023-07-20T09:20:51;5;3;
61760;PMS5003;47664;51.660;-0.100;2023-07-20T09:23:17;4;2;
61760;PMS5003;47664;51.660;-0.100;2023-07-20T09:25:46;4;2;
61760;PMS5003;47664;51.660;-0.100;2023-07-20T09:28:15;3;1;
61760;PMS5003;47664;51.660;-0.100;2023-07-20T09:30:41;4;3;
61760;PMS5003;47664;51.660;-0.100;2023-07-20T09:33:10;4;4;
61760;PMS5003;47664;51.660;-0.100;2023-07-20T09:35:46;2;2;
61760;PMS5003;47664;51.660;-0.100;2023-07-20T09:38:14;3;3;
61760;PMS5003;47664;51.660;-0.100;2023-07-20T09:40:42;4;4;
61760;PMS5003;47664;51.660;-0.100;2023-07-20T09:43:09;2;2;
61760;PMS5003;47664;51.660;-0.100;2023-07-20T09:45:39;3;3;
61760;PMS5003;47664;51.660;-0.100;2023-07-20T09:48:07;4;3;
61760;PMS5003;47664;51.660;-0.100;2023-07-20T09:50:41;2;2;
61760;PMS5003;47664;51.660;-0.100;2023-07-20T09:53:11;0;0;
61760;PMS5003;47664;51.660;-0.100;2023-07-20T09:55:39;4;2;
61760;PMS5003;47664;51.660;-0.100;2023-07-20T09:58:06;1;1;
61760;PMS5003;47664;51.660;-0.100;2023-07-20T10:00:35;3;2;
61760;PMS5003;47664;51.660;-0.100;2023-07-20T10:03:04;1;1;
61760;PMS5003;47664;51.660;-0.100;2023-07-20T10:05:33;3;2;
61760;PMS5003;47664;51.660;-0.100;2023-07-20T10:08:02;4;1;
61760;PMS5003;47664;51.660;-0.100;2023-07-20T10:10:31;1;1;
61760;PMS5003;47664;51.660;-0.100;2023-07-20T10:13:00;3;1;
61760;PMS5003;47664;51.660;-0.100;2023-07-20T10:15:29;1;1;
61760;PMS5003;47664;51.660;-0.100;2023-07-20T10:18:02;0;0;
61760;PMS5003;47664;51.660;-0.100;2023-07-20T10:20:33;1;1;
61760;PMS5003;47664;51.660;-0.100;2023-07-20T10:23:03;2;2;
61760;PMS5003;47664;51.660;-0.100;2023-07-20T10:25:31;3;1;
61760;PMS5003;47664;51.660;-0.100;2023-07-20T10:27:59;1;1;
61760;PMS5003;47664;51.660;-0.100;2023-07-20T10:30:26;4;1;
61760;PMS5003;47664;51.660;-0.100;2023-07-20T10:32:54;1;1;
61760;PMS5003;47664;51.660;-0.100;2023-07-20T10:35:21;1;1;
61760;PMS5003;47664;51.660;-0.100;2023-07-20T10:37:49;2;1;
61760;PMS5003;47664;51.660;-0.100;2023-07-20T10:40:34;2;2;
61760;PMS5003;47664;51.660;-0.100;2023-07-20T10:43:05;2;2;
61760;PMS5003;47664;51.660;-0.100;2023-07-20T10:45:39;2;1;
61760;PMS5003;47664;51.660;-0.100;2023-07-20T10:48:17;2;0;
61760;PMS5003;47664;51.660;-0.100;2023-07-20T10:50:46;2;2;
61760;PMS5003;47664;51.660;-0.100;2023-07-20T10:53:34;0;0;
61760;PMS5003;47664;51.660;-0.100;2023-07-20T10:56:05;1;1;
61760;PMS5003;47664;51.660;-0.100;2023-07-20T10:58:33;0;0;
61760;PMS5003;47664;51.660;-0.100;2023-07-20T11:01:01;3;0;
61760;PMS5003;47664;51.660;-0.100;2023-07-20T11:03:30;3;2;
61760;PMS5003;47664;51.660;-0.100;2023-07-20T11:05:58;3;1;
61760;PMS5003;47664;51.660;-0.100;2023-07-20T11:08:40;1;1;
61760;PMS5003;47664;51.660;-0.100;2023-07-20T11:11:24;0;0;
61760;PMS5003;47664;51.660;-0.100;2023-07-20T11:13:53;1;0;
61760;PMS5003;47664;51.660;-0.100;2023-07-20T11:16:32;2;2;
61760;PMS5003;47664;51.660;-0.100;2023-07-20T11:19:00;4;1;
61760;PMS5003;47664;51.660;-0.100;2023-07-20T11:21:28;0;0;
61760;PMS5003;47664;51.660;-0.100;2023-07-20T11:23:56;2;2;
61760;PMS5003;47664;51.660;-0.100;2023-07-20T11:26:23;2;2;
61760;PMS5003;47664;51.660;-0.100;2023-07-20T11:28:50;1;1;
61760;PMS5003;47664;51.660;-0.100;2023-07-20T11:31:18;3;2;
61760;PMS5003;47664;51.660;-0.100;2023-07-20T11:33:46;0;0;
61760;PMS5003;47664;51.660;-0.100;2023-07-20T11:36:13;1;1;
61760;PMS5003;47664;51.660;-0.100;2023-07-20T11:38:41;1;1;
61760;PMS5003;47664;51.660;-0.100;2023-07-20T11:41:09;1;1;
61760;PMS5003;47664;51.660;-0.100;2023-07-20T11:43:35;0;0;
61760;PMS5003;47664;51.660;-0.100;2023-07-20T11:46:04;2;2;
61760;PMS5003;47664;51.660;-0.100;2023-07-20T11:48:32;1;1;
61760;PMS5003;47664;51.660;-0.100;2023-07-20T11:50:58;1;1;
61760;PMS5003;47664;51.660;-0.100;2023-07-20T11:53:25;1;1;
61760;PMS5003;47664;51.660;-0.100;2023-07-20T11:55:53;3;1;
61760;PMS5003;47664;51.660;-0.100;2023-07-20T11:58:21;1;1;
61760;PMS5003;47664;51.660;-0.100;2023-07-20T12:00:48;3;1;
61760;PMS5003;47664;51.660;-0.100;2023-07-20T12:03:15;2;2;
61760;PMS5003;47664;51.660;-0.100;2023-07-20T12:05:44;3;1;
61760;PMS5003;47664;51.660;-0.100;2023-07-20T12:08:11;1;1;
61760;PMS5003;47664;51.660;-0.100;2023-07-20T12:10:39;2;2;
61760;PMS5003;47664;51.660;-0.100;2023-07-20T12:13:06;1;1;
61760;PMS5003;47664;51.660;-0.100;2023-07-20T12:15:36;3;1;
61760;PMS5003;47664;51.660;-0.100;2023-07-20T12:18:04;1;1;
61760;PMS5003;47664;51.660;-0.100;2023-07-20T12:20:32;1;1;
61760;PMS5003;47664;51.660;-0.100;2023-07-20T12:23:01;1;1;
61760;PMS5003;47664;51.660;-0.100;2023-07-20T12:25:32;0;0;
61760;PMS5003;47664;51.660;-0.100;2023-07-20T12:28:04;0;0;
61760;PMS5003;47664;51.660;-0.100;2023-07-20T12:30:32;1;1;
61760;PMS5003;47664;51.660;-0.100;2023-07-20T12:32:58;1;1;
61760;PMS5003;47664;51.660;-0.100;2023-07-20T12:35:25;0;0;
61760;PMS5003;47664;51.660;-0.100;2023-07-20T12:37:53;3;2;
61760;PMS5003;47664;51.660;-0.100;2023-07-20T12:40:20;2;1;
61760;PMS5003;47664;51.660;-0.100;2023-07-20T12:42:47;3;2;
61760;PMS5003;47664;51.660;-0.100;2023-07-20T12:45:14;1;1;
61760;PMS5003;47664;51.660;-0.100;2023-07-20T12:47:42;3;1;
61760;PMS5003;47664;51.660;-0.100;2023-07-20T12:50:10;3;1;
61760;PMS5003;47664;51.660;-0.100;2023-07-20T12:52:38;2;2;
61760;PMS5003;47664;51.660;-0.100;2023-07-20T12:55:07;1;1;
61760;PMS5003;47664;51.660;-0.100;2023-07-20T12:57:36;1;1;
61760;PMS5003;47664;51.660;-0.100;2023-07-20T13:00:04;1;1;
61760;PMS5003;47664;51.660;-0.100;2023-07-20T13:02:33;1;1;
61760;PMS5003;47664;51.660;-0.100;2023-07-20T13:05:01;0;0;
61760;PMS5003;47664;51.660;-0.100;2023-07-20T13:07:29;1;1;
61760;PMS5003;47664;51.660;-0.100;2023-07-20T13:09:57;1;1;
61760;PMS5003;47664;51.660;-0.100;2023-07-20T13:12:25;1;1;
61760;PMS5003;47664;51.660;-0.100;2023-07-20T13:14:53;2;2;
61760;PMS5003;47664;51.660;-0.100;2023-07-20T13:17:20;1;1;
61760;PMS5003;47664;51.660;-0.100;2023-07-20T13:19:48;0;0;
61760;PMS5003;47664;51.660;-0.100;2023-07-20T13:22:16;1;1;
61760;PMS5003;47664;51.660;-0.100;2023-07-20T13:24:43;2;2;
61760;PMS5003;47664;51.660;-0.100;2023-07-20T13:27:12;1;1;
61760;PMS5003;47664;51.660;-0.100;2023-07-20T13:29:39;0;0;
61760;PMS5003;47664;51.660;-0.100;2023-07-20T13:32:07;1;1;
61760;PMS5003;47664;51.660;-0.100;2023-07-20T13:34:34;1;1;
61760;PMS5003;47664;51.660;-0.100;2023-07-20T13:37:02;1;1;
61760;PMS5003;47664;51.660;-0.100;2023-07-20T13:39:29;3;0;
61760;PMS5003;47664;51.660;-0.100;2023-07-20T13:41:55;2;2;
61760;PMS5003;47664;51.660;-0.100;2023-07-20T13:44:22;1;1;
61760;PMS5003;47664;51.660;-0.100;2023-07-20T13:46:49;1;1;
61760;PMS5003;47664;51.660;-0.100;2023-07-20T13:49:17;0;0;
61760;PMS5003;47664;51.660;-0.100;2023-07-20T13:51:44;0;0;
61760;PMS5003;47664;51.660;-0.100;2023-07-20T13:54:10;0;0;
61760;PMS5003;47664;51.660;-0.100;2023-07-20T13:56:37;1;1;
61760;PMS5003;47664;51.660;-0.100;2023-07-20T13:59:05;0;0;
61760;PMS5003;47664;51.660;-0.100;2023-07-20T14:01:32;1;1;
61760;PMS5003;47664;51.660;-0.100;2023-07-20T14:03:59;0;0;
61760;PMS5003;47664;51.660;-0.100;2023-07-20T14:06:29;3;1;
61760;PMS5003;47664;51.660;-0.100;2023-07-20T14:08:57;0;0;
61760;PMS5003;47664;51.660;-0.100;2023-07-20T14:11:25;1;1;
61760;PMS5003;47664;51.660;-0.100;2023-07-20T14:13:53;1;1;
61760;PMS5003;47664;51.660;-0.100;2023-07-20T14:16:21;0;0;
61760;PMS5003;47664;51.660;-0.100;2023-07-20T14:18:49;2;1;
61760;PMS5003;47664;51.660;-0.100;2023-07-20T14:21:17;1;1;
61760;PMS5003;47664;51.660;-0.100;2023-07-20T14:23:45;0;0;
61760;PMS5003;47664;51.660;-0.100;2023-07-20T14:26:14;0;0;
61760;PMS5003;47664;51.660;-0.100;2023-07-20T14:28:41;2;0;
61760;PMS5003;47664;51.660;-0.100;2023-07-20T14:31:08;2;2;
61760;PMS5003;47664;51.660;-0.100;2023-07-20T14:33:35;1;1;
61760;PMS5003;47664;51.660;-0.100;2023-07-20T14:36:02;1;1;
61760;PMS5003;47664;51.660;-0.100;2023-07-20T14:38:30;0;0;
61760;PMS5003;47664;51.660;-0.100;2023-07-20T14:40:58;1;1;
61760;PMS5003;47664;51.660;-0.100;2023-07-20T14:43:25;1;1;
61760;PMS5003;47664;51.660;-0.100;2023-07-20T14:45:52;3;2;
61760;PMS5003;47664;51.660;-0.100;2023-07-20T14:48:19;0;0;
61760;PMS5003;47664;51.660;-0.100;2023-07-20T14:50:46;6;1;
61760;PMS5003;47664;51.660;-0.100;2023-07-20T14:53:13;2;2;
61760;PMS5003;47664;51.660;-0.100;2023-07-20T14:55:41;2;1;
61760;PMS5003;47664;51.660;-0.100;2023-07-20T14:58:09;1;1;
61760;PMS5003;47664;51.660;-0.100;2023-07-20T15:00:35;1;1;
61760;PMS5003;47664;51.660;-0.100;2023-07-20T15:03:02;0;0;
61760;PMS5003;47664;51.660;-0.100;2023-07-20T15:05:30;3;2;
61760;PMS5003;47664;51.660;-0.100;2023-07-20T15:07:57;0;0;
61760;PMS5003;47664;51.660;-0.100;2023-07-20T15:10:24;1;1;
61760;PMS5003;47664;51.660;-0.100;2023-07-20T15:12:50;0;0;
61760;PMS5003;47664;51.660;-0.100;2023-07-20T15:15:17;0;0;
61760;PMS5003;47664;51.660;-0.100;2023-07-20T15:17:45;0;0;
61760;PMS5003;47664;51.660;-0.100;2023-07-20T15:20:13;0;0;
61760;PMS5003;47664;51.660;-0.100;2023-07-20T15:22:40;0;0;
61760;PMS5003;47664;51.660;-0.100;2023-07-20T15:25:08;0;0;
61760;PMS5003;47664;51.660;-0.100;2023-07-20T15:27:36;1;1;
61760;PMS5003;47664;51.660;-0.100;2023-07-20T15:30:03;2;2;
61760;PMS5003;47664;51.660;-0.100;2023-07-20T15:32:30;1;0;
61760;PMS5003;47664;51.660;-0.100;2023-07-20T15:34:57;2;0;
61760;PMS5003;47664;51.660;-0.100;2023-07-20T15:37:24;1;1;
61760;PMS5003;47664;51.660;-0.100;2023-07-20T15:39:51;2;1;
61760;PMS5003;47664;51.660;-0.100;2023-07-20T15:42:18;1;1;
61760;PMS5003;47664;51.660;-0.100;2023-07-20T15:44:47;0;0;
61760;PMS5003;47664;51.660;-0.100;2023-07-20T15:47:15;3;1;
61760;PMS5003;47664;51.660;-0.100;2023-07-20T15:49:42;0;0;
61760;PMS5003;47664;51.660;-0.100;2023-07-20T15:52:09;1;1;
61760;PMS5003;47664;51.660;-0.100;2023-07-20T15:54:36;2;2;
61760;PMS5003;47664;51.660;-0.100;2023-07-20T15:57:03;1;1;
61760;PMS5003;47664;51.660;-0.100;2023-07-20T15:59:31;1;1;
61760;PMS5003;47664;51.660;-0.100;2023-07-20T16:01:57;1;1;
61760;PMS5003;47664;51.660;-0.100;2023-07-20T16:04:24;0;0;
61760;PMS5003;47664;51.660;-0.100;2023-07-20T16:06:51;0;0;
61760;PMS5003;47664;51.660;-0.100;2023-07-20T16:09:18;1;1;
61760;PMS5003;47664;51.660;-0.100;2023-07-20T16:11:46;0;0;
61760;PMS5003;47664;51.660;-0.100;2023-07-20T16:14:13;2;1;
61760;PMS5003;47664;51.660;-0.100;2023-07-20T16:16:40;1;1;
61760;PMS5003;47664;51.660;-0.100;2023-07-20T16:19:07;1;1;
61760;PMS5003;47664;51.660;-0.100;2023-07-20T16:21:34;1;1;
61760;PMS5003;47664;51.660;-0.100;2023-07-20T16:24:01;1;1;
61760;PMS5003;47664;51.660;-0.100;2023-07-20T16:26:28;0;0;
61760;PMS5003;47664;51.660;-0.100;2023-07-20T16:28:55;1;1;
61760;PMS5003;47664;51.660;-0.100;2023-07-20T16:31:22;2;2;
61760;PMS5003;47664;51.660;-0.100;2023-07-20T16:33:50;3;2;
61760;PMS5003;47664;51.660;-0.100;2023-07-20T16:36:16;1;1;
61760;PMS5003;47664;51.660;-0.100;2023-07-20T16:38:44;0;0;